ADDS TAF Board (Experimental) INFO Settings
IDs: Format: Expanded Condensed

KLGA - New York/La Guardia, NY, US

Issued at 1932 UTC 24 Sep 2016
Updated at 2053 UTC 24 Sep 2016
Time1951Z 24/21Z 24/22Z 24/23Z 25/00Z 25/01Z 25/02Z 25/03Z 25/04Z 25/05Z 25/06Z 25/07Z 25/08Z 25/09Z
Type OBS PRVL PRVL PRVL PRVL PRVL PRVL PRVL PRVL PRVL PRVL PRVL PRVL PRVL
VIS 10 >6 >6 >6 >6 >6 >6 >6 >6 >6 >6 >6 >6 >6
CIG -- -- -- -- -- -- -- -- -- -- -- -- -- --
Cover SCT FEW FEW FEW FEW FEW FEW FEW FEW FEW SKC SKC SKC SKC
FltCat VFR VFR VFR VFR VFR VFR VFR VFR VFR VFR VFR VFR VFR VFR
WX -- -- -- -- -- -- -- -- -- -- -- -- -- --
WDir 340 10 10 10 10 10 10 10 10 10 350 350 350 350
WSpd 10 8 8 8 7 7 7 7 7 7 7 7 7 7
WGst -- 15 15 15 -- -- -- -- -- -- -- -- -- --
R04/22
XWnd 8 3 3 3 3 3 3 3 3 3 5 5 5 5
XGst -- 6 6 6 -- -- -- -- -- -- -- -- -- --
HWnd 6 7 7 7 6 6 6 6 6 6 5 5 5 5
HGst -- 14 14 14 -- -- -- -- -- -- -- -- -- --
R13/31
XWnd 6 7 7 7 6 6 6 6 6 6 5 5 5 5
XGst -- 14 14 14 -- -- -- -- -- -- -- -- -- --
HWnd -8 -3 -3 -3 -3 -3 -3 -3 -3 -3 -5 -5 -5 -5
HGst -- -6 -6 -6 -- -- -- -- -- -- -- -- -- --

Raw TAF
KLGA 241932Z 2420/2518 01008G15KT P6SM FEW045
  FM250000 01007KT P6SM FEW045
  FM250600 35007KT P6SM SKC


Raw METAR
KLGA 241951Z 34010KT 10SM FEW035 SCT070 22/06 A3007 RMK AO2 SLP183 T02170056
KLGA 241851Z 35012G17KT 10SM FEW035 SCT070 22/07 A3008 RMK AO2 SLP185 T02170067
KLGA 241751Z 35012KT 10SM FEW035 SCT070 21/07 A3009 RMK AO2 SLP190 60000 T02110067 10211 20150 58012

METAR Board
Radar Display
Forecast Discussion

TAF Board Legend

Potential Impact
Threat None Slight Moderate High
Visibility (sm) ≥5.1 5.1>X≥3 3>X≥1 <1
Ceiling (100 ft) ≥30.1 30.1>X≥10 10>X≥5 <5
Wind Speed (kt) <10 10≤X<20 20≤X<30 ≥30
Wind Gust (kt) <15 15≤X<25 25≤X<35 ≥35
Weather No Wx Reported VCTS,-TS,-FZRA,SN TS,FZRA +TS,+FZRA,+SN